Miguel Pereira, Brazil
Current Conditions -  °F | °C
As of 7:00 AM on Wednesday 22 Oct 2014 (Local Time) from SBGL Reporting Station
Overcast Overcast  
Wind Chill: 64°   Ceiling: 3000
Heat Index: 64°   Visibility: 6mi
Dew Point: 61°   Wind: 6mph
Humidity: 88%   Direction: 70°ENE
Pressure: 30.15"   Gusts: NA
Location:  22.45°S, 43.47°W
Report Text: SBGL 220900Z 07005KT 9999 SCT015 BKN030 OVC040 18/16 Q1021
Loading
Personal Weather Stations






























Interactive Weather Map
Tropical Storm Tracking
New forecast layout! Learn more

10-Day Weather Forecast

Advertisements
Track Severe Weather on mobile